createdAt,value
2022-10-11T00:03:10.166Z,11.26
2022-10-11T00:09:53.239Z,11.25
2022-10-11T00:16:36.696Z,11.21
2022-10-11T00:23:20.081Z,11.28
2022-10-11T00:30:05.775Z,11.31
2022-10-11T00:36:49.270Z,11.33
2022-10-11T00:43:32.220Z,11.34
2022-10-11T00:50:24.387Z,11.39
2022-10-11T00:57:07.540Z,11.42
2022-10-11T01:03:50.304Z,11.49
2022-10-11T01:10:33.427Z,11.63
2022-10-11T01:17:19.479Z,11.72
2022-10-11T01:24:09.098Z,11.74
2022-10-11T01:30:56.602Z,11.73
2022-10-11T01:37:38.250Z,11.71
2022-10-11T01:44:05.095Z,11.69
2022-10-11T01:50:14.055Z,11.67
2022-10-11T01:56:54.819Z,11.66
2022-10-11T02:03:57.157Z,11.64
2022-10-11T02:10:48.489Z,11.63
2022-10-11T02:17:40.109Z,11.66
2022-10-11T02:24:37.910Z,11.66
2022-10-11T02:31:20.794Z,11.70
2022-10-11T02:38:03.333Z,11.80
2022-10-11T02:44:48.888Z,11.87
2022-10-11T02:51:12.323Z,11.88
2022-10-11T02:57:19.799Z,11.87
2022-10-11T03:04:02.766Z,11.83
2022-10-11T03:10:45.197Z,11.77
2022-10-11T03:17:42.837Z,11.72
2022-10-11T03:24:06.201Z,11.66
2022-10-11T03:30:49.057Z,11.63
2022-10-11T03:37:31.629Z,11.61
2022-10-11T03:44:16.071Z,11.59
2022-10-11T03:50:59.502Z,11.69
2022-10-11T03:57:42.518Z,11.79
2022-10-11T04:04:25.473Z,11.85
2022-10-11T04:11:10.788Z,11.86
2022-10-11T04:17:53.713Z,11.83
2022-10-11T04:24:36.541Z,11.78
2022-10-11T04:31:00.022Z,11.72
2022-10-11T04:37:24.667Z,11.72
2022-10-11T04:44:07.438Z,11.70
2022-10-11T04:50:37.718Z,11.65
2022-10-11T04:57:00.787Z,11.61
2022-10-11T05:03:43.994Z,11.62
2022-10-11T05:10:27.999Z,11.61
2022-10-11T05:17:10.248Z,11.61
2022-10-11T05:22:52.822Z,11.55
2022-10-11T05:28:16.175Z,11.54
2022-10-11T05:33:39.389Z,11.50
2022-10-11T05:39:01.871Z,11.44
2022-10-11T05:44:23.814Z,11.39
2022-10-11T05:49:53.848Z,11.40
2022-10-11T05:55:15.767Z,11.43
2022-10-11T06:00:38.306Z,11.42
2022-10-11T06:06:03.318Z,11.37
2022-10-11T06:11:27.760Z,11.40
2022-10-11T06:16:49.898Z,11.50
2022-10-11T06:22:12.788Z,11.59
2022-10-11T06:27:34.801Z,11.65
2022-10-11T06:32:58.217Z,11.72
2022-10-11T06:38:23.215Z,11.81
2022-10-11T06:43:45.287Z,11.89
2022-10-11T06:49:07.403Z,11.95
2022-10-11T06:54:29.037Z,12.10
2022-10-11T06:59:51.797Z,12.28
2022-10-11T07:05:13.681Z,12.43
2022-10-11T07:10:37.111Z,12.58
2022-10-11T07:16:08.334Z,12.76
2022-10-11T07:21:33.026Z,12.92
2022-10-11T07:26:55.079Z,13.00
2022-10-11T07:32:17.564Z,13.02
2022-10-11T07:37:39.367Z,13.10
2022-10-11T07:43:01.140Z,13.23
2022-10-11T07:48:23.242Z,13.31
2022-10-11T07:53:48.106Z,13.46
2022-10-11T07:59:11.044Z,13.38
2022-10-11T08:04:32.673Z,13.24
2022-10-11T08:09:54.587Z,13.09
2022-10-11T08:15:17.089Z,12.87
2022-10-11T08:20:40.336Z,12.69
2022-10-11T08:26:03.622Z,12.57
2022-10-11T08:31:26.040Z,12.36
2022-10-11T08:36:48.822Z,12.22
2022-10-11T08:42:42.752Z,12.15
2022-10-11T08:48:14.092Z,12.13
2022-10-11T08:53:57.052Z,12.08
2022-10-11T08:59:47.839Z,11.86
2022-10-11T09:05:16.146Z,11.85
2022-10-11T09:11:16.710Z,12.00
2022-10-11T09:16:49.292Z,11.95
2022-10-11T09:22:13.948Z,11.92
2022-10-11T09:28:01.154Z,11.89
2022-10-11T09:33:28.144Z,11.87
2022-10-11T09:39:01.818Z,11.84
2022-10-11T09:44:29.720Z,11.82
2022-10-11T09:49:57.663Z,11.82
2022-10-11T09:56:02.977Z,11.81
2022-10-11T10:01:25.770Z,11.86
2022-10-11T10:06:49.033Z,12.06
2022-10-11T10:12:21.091Z,12.22
2022-10-11T10:17:50.371Z,12.38
2022-10-11T10:23:29.905Z,12.54
2022-10-11T10:28:55.077Z,12.45
2022-10-11T10:34:23.422Z,12.48
2022-10-11T10:39:51.895Z,12.60
2022-10-11T10:45:21.595Z,12.53
2022-10-11T10:50:58.957Z,12.47
2022-10-11T10:56:34.475Z,12.48
2022-10-11T11:02:16.023Z,12.62
2022-10-11T11:07:54.140Z,12.74
2022-10-11T11:14:00.671Z,12.75
2022-10-11T11:19:38.178Z,12.76
2022-10-11T11:25:24.729Z,12.97
2022-10-11T11:31:09.199Z,13.26
2022-10-11T11:36:43.716Z,13.30
2022-10-11T11:42:15.965Z,13.37
2022-10-11T11:47:44.447Z,13.77
2022-10-11T11:53:32.815Z,14.27
2022-10-11T11:59:19.919Z,14.60
2022-10-11T12:04:46.344Z,14.87
2022-10-11T12:10:39.893Z,15.12
2022-10-11T12:16:02.359Z,15.47
2022-10-11T12:21:33.524Z,15.82
2022-10-11T12:26:58.731Z,16.08
2022-10-11T12:32:55.861Z,16.31
2022-10-11T12:38:21.688Z,16.44
2022-10-11T12:44:40.351Z,16.36
2022-10-11T12:50:32.350Z,16.35
2022-10-11T12:56:26.368Z,16.57
2022-10-11T13:01:55.543Z,16.84
2022-10-11T13:07:24.323Z,16.92
2022-10-11T13:12:48.681Z,16.78
2022-10-11T13:18:19.652Z,16.67
2022-10-11T13:23:42.035Z,16.70
2022-10-11T13:29:12.184Z,16.75
2022-10-11T13:34:39.523Z,16.69
2022-10-11T13:40:01.934Z,16.68
2022-10-11T13:45:27.448Z,16.75
2022-10-11T13:51:07.252Z,16.66
2022-10-11T13:56:33.316Z,16.76
2022-10-11T14:02:04.526Z,16.84
2022-10-11T14:07:48.538Z,16.90
2022-10-11T14:14:11.147Z,16.93
2022-10-11T14:20:54.168Z,17.12
2022-10-11T14:26:46.003Z,16.96
2022-10-11T14:32:19.514Z,16.78
2022-10-11T14:37:41.506Z,16.72
2022-10-11T14:43:03.649Z,16.72
2022-10-11T14:48:53.833Z,16.80
2022-10-11T14:54:08.414Z,16.74
2022-10-11T14:59:37.136Z,16.69
2022-10-11T15:04:59.116Z,16.46
2022-10-11T15:10:27.931Z,16.36
2022-10-11T15:15:50.249Z,16.17
2022-10-11T15:21:14.785Z,15.73
2022-10-11T15:27:37.706Z,15.36
2022-10-11T15:34:20.645Z,15.02
2022-10-11T15:41:06.438Z,14.70
2022-10-11T15:47:49.913Z,14.32
2022-10-11T15:54:34.037Z,13.90
2022-10-11T16:01:17.118Z,13.38
2022-10-11T16:08:11.369Z,12.87
2022-10-11T16:41:15.680Z,11.45
2022-10-11T16:48:11.374Z,11.18
2022-10-11T16:55:01.761Z,10.88
2022-10-11T17:01:49.713Z,10.62
2022-10-11T17:08:34.751Z,10.42
2022-10-11T17:15:18.211Z,10.20
2022-10-11T17:22:01.612Z,9.98
2022-10-11T17:28:44.386Z,9.74
2022-10-11T17:35:29.833Z,9.51
2022-10-11T17:42:14.313Z,9.35
2022-10-11T17:49:00.282Z,9.18
2022-10-11T17:56:00.109Z,9.05
2022-10-11T18:02:47.123Z,8.94
2022-10-11T18:09:34.660Z,8.83
2022-10-11T18:16:18.617Z,8.63
2022-10-11T18:23:05.877Z,8.48
2022-10-11T18:29:52.817Z,8.58
2022-10-11T18:36:47.322Z,8.77
2022-10-11T18:43:46.854Z,8.91
2022-10-11T19:03:55.245Z,8.72
2022-10-11T19:10:39.352Z,8.33
2022-10-11T19:17:22.966Z,8.10
2022-10-11T19:24:10.532Z,7.92
2022-10-11T19:44:37.123Z,7.90
2022-10-11T19:51:24.830Z,7.70
2022-10-11T19:58:13.477Z,7.54
2022-10-11T20:04:59.754Z,7.50
2022-10-11T20:11:50.357Z,7.56
2022-10-11T20:18:33.684Z,7.63
2022-10-11T20:25:16.872Z,7.58
2022-10-11T20:32:03.809Z,7.28
2022-10-11T20:38:47.195Z,6.94
2022-10-11T20:45:32.883Z,6.60
2022-10-11T20:52:16.217Z,6.33
2022-10-11T20:58:59.399Z,6.21
2022-10-11T21:05:42.925Z,6.17
2022-10-11T21:12:26.300Z,6.35
2022-10-11T21:19:10.497Z,6.53
2022-10-11T21:25:54.237Z,6.76
2022-10-11T21:32:37.673Z,6.91
2022-10-11T21:39:20.944Z,6.78
2022-10-11T21:46:05.061Z,6.44
2022-10-11T21:52:47.128Z,6.42
2022-10-11T21:58:49.957Z,6.31
2022-10-11T22:04:32.203Z,6.17
2022-10-11T22:10:54.453Z,6.17
2022-10-11T22:17:37.666Z,6.12
2022-10-11T22:24:21.139Z,5.87
2022-10-11T22:31:04.585Z,5.63
2022-10-11T22:36:48.832Z,5.45
2022-10-11T22:42:53.697Z,5.36
2022-10-11T22:48:36.469Z,5.38
2022-10-11T22:54:22.168Z,5.41
2022-10-11T23:00:05.362Z,5.44
2022-10-11T23:05:50.442Z,5.35
2022-10-11T23:11:33.430Z,5.31
2022-10-11T23:17:17.147Z,5.30
2022-10-11T23:22:59.460Z,5.38
2022-10-11T23:29:27.779Z,5.47
2022-10-11T23:36:16.501Z,5.64
2022-10-11T23:43:00.135Z,5.74
2022-10-11T23:49:42.584Z,5.77
2022-10-11T23:56:22.590Z,5.82
